createdAt,value
2019-01-26T00:01:10.396Z,62.70
2019-01-26T00:03:37.807Z,62.30
2019-01-26T00:06:05.227Z,61.60
2019-01-26T00:08:32.622Z,61.80
2019-01-26T00:10:59.974Z,61.60
2019-01-26T00:13:27.385Z,61.20
2019-01-26T00:15:54.708Z,60.40
2019-01-26T00:18:22.149Z,60.60
2019-01-26T00:20:49.566Z,60.10
2019-01-26T00:23:17.028Z,60.00
2019-01-26T00:25:44.439Z,60.40
2019-01-26T00:28:11.798Z,60.10
2019-01-26T00:30:39.228Z,60.50
2019-01-26T00:33:06.687Z,60.60
2019-01-26T00:35:34.099Z,60.20
2019-01-26T00:38:01.811Z,60.10
2019-01-26T00:40:29.163Z,60.40
2019-01-26T00:42:56.580Z,61.10
2019-01-26T00:45:23.875Z,61.80
2019-01-26T00:47:51.585Z,61.50
2019-01-26T00:50:18.883Z,62.10
2019-01-26T00:52:46.294Z,62.20
2019-01-26T00:55:13.889Z,62.10
2019-01-26T00:57:41.187Z,63.30
2019-01-26T01:00:11.139Z,62.90
2019-01-26T01:02:38.680Z,63.00
2019-01-26T01:05:07.852Z,62.90
2019-01-26T01:07:35.170Z,62.70
2019-01-26T01:10:02.688Z,62.90
2019-01-26T01:12:30.155Z,62.90
2019-01-26T01:14:57.571Z,65.10
2019-01-26T01:17:24.906Z,63.60
2019-01-26T01:19:52.331Z,62.90
2019-01-26T01:22:19.663Z,62.50
2019-01-26T01:24:46.983Z,62.20
2019-01-26T01:27:14.401Z,62.20
2019-01-26T01:29:41.730Z,62.70
2019-01-26T01:32:09.152Z,63.20
2019-01-26T01:34:36.555Z,66.10
2019-01-26T01:37:03.929Z,66.90
2019-01-26T01:39:31.303Z,70.50
2019-01-26T01:41:58.659Z,72.00
2019-01-26T01:44:26.180Z,75.80
2019-01-26T01:46:53.499Z,72.00
2019-01-26T01:49:20.809Z,73.90
2019-01-26T01:51:49.047Z,75.30
2019-01-26T01:54:16.467Z,77.20
2019-01-26T01:56:43.865Z,75.00
2019-01-26T01:59:11.636Z,75.20
2019-01-26T02:01:39.053Z,77.90
2019-01-26T02:04:06.447Z,81.60
2019-01-26T02:06:33.808Z,81.60
2019-01-26T02:09:01.101Z,81.80
2019-01-26T02:11:28.459Z,84.40
2019-01-26T02:13:55.876Z,82.90
2019-01-26T02:16:23.191Z,83.20
2019-01-26T02:18:50.602Z,84.40
2019-01-26T02:21:18.101Z,85.70
2019-01-26T02:23:45.514Z,85.30
2019-01-26T02:26:12.852Z,88.10
2019-01-26T02:28:40.263Z,86.10
2019-01-26T02:31:07.646Z,87.10
2019-01-26T02:33:35.054Z,88.60
2019-01-26T02:36:02.452Z,84.00
2019-01-26T02:38:29.752Z,86.00
2019-01-26T02:40:57.553Z,87.50
2019-01-26T02:43:24.963Z,86.80
2019-01-26T02:45:52.351Z,82.80
2019-01-26T02:48:19.657Z,84.40
2019-01-26T02:50:46.955Z,83.40
2019-01-26T02:53:14.345Z,84.60
2019-01-26T02:55:41.651Z,85.10
2019-01-26T02:58:09.018Z,83.60
2019-01-26T03:00:36.353Z,83.60
2019-01-26T03:03:03.661Z,83.80
2019-01-26T03:05:30.991Z,84.90
2019-01-26T03:07:58.317Z,84.30
2019-01-26T03:10:25.745Z,85.30
2019-01-26T03:12:53.187Z,87.60
2019-01-26T03:15:21.659Z,86.60
2019-01-26T03:17:49.262Z,88.10
2019-01-26T03:20:16.937Z,86.50
2019-01-26T03:22:44.258Z,86.50
2019-01-26T03:25:11.892Z,87.60
2019-01-26T03:27:39.304Z,84.50
2019-01-26T03:30:11.464Z,85.90
2019-01-26T03:32:38.862Z,85.90
2019-01-26T03:35:06.282Z,84.50
2019-01-26T03:37:33.582Z,85.00
2019-01-26T03:40:00.974Z,84.50
2019-01-26T03:42:28.313Z,86.10
2019-01-26T03:44:55.718Z,86.40
2019-01-26T03:47:23.020Z,85.70
2019-01-26T03:49:50.770Z,84.50
2019-01-26T03:52:18.169Z,86.00
2019-01-26T03:54:45.601Z,85.60
2019-01-26T03:57:13.017Z,83.70
2019-01-26T03:59:40.460Z,84.30
2019-01-26T04:02:07.842Z,84.40
2019-01-26T04:04:35.420Z,86.50
2019-01-26T04:07:02.898Z,85.60
2019-01-26T04:09:30.239Z,83.50
2019-01-26T04:11:57.524Z,83.30
2019-01-26T04:14:24.948Z,83.30
2019-01-26T04:16:52.255Z,83.40
2019-01-26T04:19:19.675Z,84.10
2019-01-26T04:21:47.047Z,85.20
2019-01-26T04:24:14.434Z,83.60
2019-01-26T04:26:41.755Z,84.20
2019-01-26T04:29:09.167Z,82.80
2019-01-26T04:31:36.596Z,83.20
2019-01-26T04:34:04.013Z,83.10
2019-01-26T04:36:31.387Z,82.90
2019-01-26T04:38:58.805Z,84.20
2019-01-26T04:41:26.190Z,84.50
2019-01-26T04:43:53.585Z,84.30
2019-01-26T04:46:20.972Z,85.60
2019-01-26T04:48:48.621Z,85.60
2019-01-26T04:51:16.048Z,87.50
2019-01-26T04:53:43.365Z,86.00
2019-01-26T04:56:10.813Z,87.90
2019-01-26T04:58:38.215Z,87.80
2019-01-26T05:01:05.559Z,88.40
2019-01-26T05:03:32.895Z,86.80
2019-01-26T05:06:00.288Z,86.80
2019-01-26T05:08:27.672Z,86.40
2019-01-26T05:10:55.113Z,84.10
2019-01-26T05:13:22.549Z,86.10
2019-01-26T05:15:49.964Z,85.40
2019-01-26T05:18:17.348Z,85.00
2019-01-26T05:20:44.694Z,85.80
2019-01-26T05:23:12.082Z,86.40
2019-01-26T05:25:39.437Z,85.70
2019-01-26T05:28:06.760Z,83.70
2019-01-26T05:30:34.086Z,86.10
2019-01-26T05:33:01.767Z,85.40
2019-01-26T05:35:29.165Z,85.40
2019-01-26T05:37:56.591Z,86.00
2019-01-26T05:40:24.294Z,87.20
2019-01-26T05:42:51.622Z,86.70
2019-01-26T05:45:20.313Z,89.60
2019-01-26T05:47:49.498Z,88.50
2019-01-26T05:50:18.788Z,85.80
2019-01-26T05:52:46.071Z,87.60
2019-01-26T05:55:13.796Z,86.90
2019-01-26T05:57:41.158Z,85.20
2019-01-26T06:00:11.499Z,86.20
2019-01-26T06:02:38.893Z,86.80
2019-01-26T06:05:06.313Z,85.60
2019-01-26T06:07:33.643Z,84.70
2019-01-26T06:10:01.044Z,87.00
2019-01-26T06:12:28.482Z,84.10
2019-01-26T06:14:55.814Z,86.30
2019-01-26T06:17:23.113Z,85.50
2019-01-26T06:19:50.420Z,86.70
2019-01-26T06:22:17.840Z,89.20
2019-01-26T06:24:45.155Z,85.90
2019-01-26T06:27:12.598Z,87.00
2019-01-26T06:29:39.910Z,85.40
2019-01-26T06:32:07.225Z,84.70
2019-01-26T06:34:34.622Z,85.60
2019-01-26T06:37:01.963Z,85.70
2019-01-26T06:39:29.386Z,85.30
2019-01-26T06:41:56.794Z,86.30
2019-01-26T06:44:24.195Z,85.30
2019-01-26T06:46:51.658Z,84.30
2019-01-26T06:49:19.072Z,84.10
2019-01-26T06:51:55.712Z,85.00
2019-01-26T06:54:23.030Z,84.30
2019-01-26T06:56:50.439Z,83.60
2019-01-26T06:59:17.807Z,83.30
2019-01-26T07:01:45.227Z,85.00
2019-01-26T07:04:17.215Z,83.40
2019-01-26T07:07:04.202Z,81.60
2019-01-26T07:09:31.902Z,84.30
2019-01-26T07:11:59.230Z,84.50
2019-01-26T07:14:26.738Z,86.10
2019-01-26T07:16:54.098Z,85.90
2019-01-26T07:19:21.522Z,86.50
2019-01-26T07:21:48.952Z,85.00
2019-01-26T07:24:16.373Z,86.30
2019-01-26T07:26:43.720Z,85.00
2019-01-26T07:29:11.164Z,85.80
2019-01-26T07:31:38.583Z,86.00
2019-01-26T07:34:06.009Z,86.40
2019-01-26T07:36:33.444Z,86.30
2019-01-26T07:39:00.848Z,84.70
2019-01-26T07:41:28.163Z,83.90
2019-01-26T07:43:55.622Z,86.00
2019-01-26T07:46:23.407Z,86.70
2019-01-26T07:48:50.764Z,86.70
2019-01-26T07:51:18.181Z,86.40
2019-01-26T07:53:45.618Z,87.60
2019-01-26T07:56:13.067Z,83.80
2019-01-26T07:58:40.468Z,84.70
2019-01-26T08:01:07.917Z,85.50
2019-01-26T08:03:35.343Z,84.80
2019-01-26T08:06:02.747Z,83.50
2019-01-26T08:08:30.168Z,84.20
2019-01-26T08:10:57.674Z,84.10
2019-01-26T08:13:24.989Z,84.90
2019-01-26T08:15:52.339Z,84.60
2019-01-26T08:18:24.005Z,86.90
2019-01-26T08:20:49.421Z,85.20
2019-01-26T08:23:16.856Z,85.70
2019-01-26T08:25:44.549Z,86.70
2019-01-26T08:28:11.910Z,86.50
2019-01-26T08:30:39.338Z,85.50
2019-01-26T08:33:06.776Z,83.90
2019-01-26T08:35:34.114Z,84.10
2019-01-26T08:38:01.581Z,83.90
2019-01-26T08:40:28.988Z,85.30
2019-01-26T08:42:56.346Z,83.60
2019-01-26T08:45:23.831Z,83.50
2019-01-26T08:47:51.224Z,84.00
2019-01-26T08:50:21.065Z,83.00
2019-01-26T08:52:48.533Z,83.60
2019-01-26T08:55:18.431Z,82.20
2019-01-26T08:57:45.142Z,82.50
2019-01-26T09:00:16.822Z,82.90
2019-01-26T09:03:09.786Z,82.10
2019-01-26T09:06:03.574Z,80.50
2019-01-26T09:08:31.714Z,82.10
2019-01-26T09:10:59.186Z,81.30
2019-01-26T09:13:26.652Z,84.50
2019-01-26T09:15:54.160Z,83.10
2019-01-26T09:18:22.043Z,82.20
2019-01-26T09:20:49.683Z,82.00
2019-01-26T09:23:17.194Z,82.40
2019-01-26T09:25:44.812Z,82.10
2019-01-26T09:28:12.497Z,81.30
2019-01-26T09:30:39.939Z,81.50
2019-01-26T09:33:07.763Z,81.20
2019-01-26T09:35:35.248Z,80.20
2019-01-26T09:38:03.175Z,79.80
2019-01-26T09:40:30.614Z,79.20
2019-01-26T09:42:58.003Z,81.60
2019-01-26T09:45:25.431Z,81.10
2019-01-26T09:47:52.881Z,82.30
2019-01-26T09:50:20.474Z,81.80
2019-01-26T09:52:49.961Z,81.70
2019-01-26T09:55:17.346Z,80.30
2019-01-26T09:57:44.772Z,82.10
2019-01-26T10:00:14.673Z,82.00
2019-01-26T10:02:42.133Z,82.20
2019-01-26T10:05:09.604Z,82.20
2019-01-26T10:07:37.083Z,82.20
2019-01-26T10:10:04.722Z,82.50
2019-01-26T10:12:32.157Z,81.30
2019-01-26T10:14:59.746Z,82.80
2019-01-26T10:17:27.244Z,82.50
2019-01-26T10:19:54.683Z,82.80
2019-01-26T10:22:22.312Z,82.70
2019-01-26T10:24:49.751Z,84.70
2019-01-26T10:27:17.126Z,82.90
2019-01-26T10:29:44.575Z,82.10
2019-01-26T10:32:12.009Z,82.20
2019-01-26T10:34:39.463Z,81.90
2019-01-26T10:37:15.486Z,82.30
2019-01-26T10:39:42.986Z,81.30
2019-01-26T10:42:28.046Z,80.90
2019-01-26T10:44:55.861Z,80.60
2019-01-26T10:47:23.318Z,81.30
2019-01-26T10:49:50.772Z,81.30
2019-01-26T10:52:18.299Z,83.30
2019-01-26T10:54:45.789Z,81.30
2019-01-26T10:57:13.373Z,81.70
2019-01-26T10:59:40.777Z,81.80
2019-01-26T11:02:08.253Z,82.30
2019-01-26T11:04:35.656Z,82.30
2019-01-26T11:07:03.137Z,81.30
2019-01-26T11:09:30.585Z,82.50
2019-01-26T11:11:58.323Z,81.80
2019-01-26T11:14:25.785Z,81.10
2019-01-26T11:16:53.228Z,82.10
2019-01-26T11:19:20.690Z,81.30
2019-01-26T11:21:48.057Z,82.20
2019-01-26T11:24:15.820Z,82.70
2019-01-26T11:26:49.301Z,82.40
2019-01-26T11:29:12.482Z,82.10
2019-01-26T11:31:40.465Z,81.50
2019-01-26T11:34:07.886Z,82.90
2019-01-26T11:36:35.578Z,82.70
2019-01-26T11:39:07.345Z,82.50
2019-01-26T11:41:34.818Z,82.00
2019-01-26T11:44:02.649Z,80.90
2019-01-26T11:46:33.718Z,80.80
2019-01-26T11:49:01.199Z,81.80
2019-01-26T11:51:48.180Z,81.90
2019-01-26T11:54:15.663Z,80.40
2019-01-26T11:56:51.990Z,80.30
2019-01-26T11:59:19.765Z,81.00
2019-01-26T12:02:00.640Z,80.70
2019-01-26T12:04:43.352Z,81.20
2019-01-26T12:07:13.387Z,80.00
2019-01-26T12:09:40.955Z,78.90
2019-01-26T12:12:09.447Z,79.60
2019-01-26T12:14:37.212Z,79.80
2019-01-26T12:17:04.765Z,77.80
2019-01-26T12:19:32.568Z,78.70
2019-01-26T12:22:00.067Z,78.40
2019-01-26T12:24:27.531Z,78.00
2019-01-26T12:26:54.988Z,79.90
2019-01-26T12:29:22.449Z,79.40
2019-01-26T12:31:49.881Z,80.00
2019-01-26T12:34:17.307Z,79.50
2019-01-26T12:36:44.719Z,79.50
2019-01-26T12:39:12.416Z,78.60
2019-01-26T12:41:39.853Z,78.50
2019-01-26T12:44:07.331Z,78.90
2019-01-26T12:46:34.802Z,77.40
2019-01-26T12:49:02.213Z,78.60
2019-01-26T12:51:29.562Z,79.30
2019-01-26T12:53:57.195Z,78.60
2019-01-26T12:56:24.959Z,77.80
2019-01-26T12:58:52.433Z,77.70
2019-01-26T13:01:19.901Z,77.70
2019-01-26T13:03:47.395Z,77.80
2019-01-26T13:06:14.871Z,78.10
2019-01-26T13:08:42.404Z,77.30
2019-01-26T13:11:22.443Z,78.10
2019-01-26T13:13:50.248Z,77.40
2019-01-26T13:16:18.062Z,77.50
2019-01-26T13:18:45.825Z,77.10
2019-01-26T13:21:13.296Z,77.50
2019-01-26T13:23:40.801Z,77.80
2019-01-26T13:26:08.343Z,77.60
2019-01-26T13:28:35.891Z,79.10
2019-01-26T13:31:03.667Z,78.90
2019-01-26T13:33:31.115Z,78.60
2019-01-26T13:35:58.902Z,77.40
2019-01-26T13:38:26.263Z,78.30
2019-01-26T13:40:53.674Z,76.80
2019-01-26T13:43:21.539Z,77.80
2019-01-26T13:45:49.049Z,76.30
2019-01-26T13:48:16.453Z,76.10
2019-01-26T13:50:44.153Z,77.70
2019-01-26T13:53:11.590Z,77.40
2019-01-26T13:55:39.060Z,76.90
2019-01-26T13:58:06.573Z,77.00
2019-01-26T14:00:34.499Z,77.90
2019-01-26T14:03:01.958Z,77.50
2019-01-26T14:05:29.401Z,77.00
2019-01-26T14:07:56.846Z,78.10
2019-01-26T14:10:24.719Z,76.30
2019-01-26T14:12:52.160Z,76.90
2019-01-26T14:15:19.963Z,76.90
2019-01-26T14:17:47.502Z,76.00
2019-01-26T14:20:17.124Z,77.80
2019-01-26T14:22:44.608Z,76.80
2019-01-26T14:25:12.111Z,76.60
2019-01-26T14:27:41.279Z,77.00
2019-01-26T14:30:18.078Z,77.70
2019-01-26T14:32:52.285Z,77.50
2019-01-26T14:35:16.984Z,77.80
2019-01-26T14:37:44.325Z,78.00
2019-01-26T14:40:12.260Z,77.10
2019-01-26T14:42:39.784Z,77.90
2019-01-26T14:45:08.255Z,78.10
2019-01-26T14:47:35.699Z,77.00
2019-01-26T14:50:04.345Z,77.40
2019-01-26T14:52:31.719Z,76.90
2019-01-26T14:54:59.163Z,78.20
2019-01-26T14:57:26.585Z,78.80
2019-01-26T14:59:54.070Z,78.90
2019-01-26T15:02:21.647Z,77.60
2019-01-26T15:04:49.254Z,77.30
2019-01-26T15:07:17.215Z,77.80
2019-01-26T15:09:44.712Z,77.10
2019-01-26T15:12:12.638Z,78.70
2019-01-26T15:14:40.112Z,78.90
2019-01-26T15:17:07.641Z,77.80
2019-01-26T15:19:35.347Z,78.20
2019-01-26T15:22:02.714Z,78.00
2019-01-26T15:24:30.141Z,78.10
2019-01-26T15:26:57.484Z,77.20
2019-01-26T15:29:25.327Z,78.30
2019-01-26T15:31:52.803Z,78.60
2019-01-26T15:34:20.279Z,78.00
2019-01-26T15:36:48.268Z,77.70
2019-01-26T15:39:15.771Z,77.40
2019-01-26T15:41:43.286Z,77.30
2019-01-26T15:44:10.740Z,77.70
2019-01-26T15:46:38.182Z,76.80
2019-01-26T15:49:05.639Z,76.90
2019-01-26T15:51:33.266Z,78.10
2019-01-26T15:54:00.699Z,77.80
2019-01-26T15:56:28.084Z,77.30
2019-01-26T15:58:55.579Z,77.50
2019-01-26T16:01:23.209Z,78.20
2019-01-26T16:03:51.135Z,77.10
2019-01-26T16:06:18.822Z,77.30
2019-01-26T16:08:46.447Z,77.30
2019-01-26T16:11:13.930Z,76.50
2019-01-26T16:13:41.426Z,78.20
2019-01-26T16:16:08.807Z,79.00
2019-01-26T16:18:36.324Z,78.70
2019-01-26T16:21:03.875Z,78.80
2019-01-26T16:23:31.399Z,77.90
2019-01-26T16:25:58.846Z,78.50
2019-01-26T16:28:26.296Z,77.70
2019-01-26T16:30:53.740Z,77.30
2019-01-26T16:33:21.095Z,76.40
2019-01-26T16:35:48.541Z,76.50
2019-01-26T16:38:15.998Z,76.90
2019-01-26T16:40:43.465Z,76.40
2019-01-26T16:43:10.924Z,76.20
2019-01-26T16:45:39.707Z,75.30
2019-01-26T16:48:10.055Z,76.40
2019-01-26T16:50:37.742Z,77.20
2019-01-26T16:53:05.119Z,77.60
2019-01-26T16:55:32.609Z,77.30
2019-01-26T16:58:00.083Z,76.50
2019-01-26T17:00:38.849Z,77.40
2019-01-26T17:03:06.312Z,76.70
2019-01-26T17:05:33.931Z,76.70
2019-01-26T17:08:01.303Z,76.70
2019-01-26T17:10:34.157Z,76.70
2019-01-26T17:12:58.246Z,77.00
2019-01-26T17:15:25.570Z,78.20
2019-01-26T17:17:53.073Z,77.90
2019-01-26T17:20:25.532Z,77.60
2019-01-26T17:22:53.753Z,77.80
2019-01-26T17:25:21.245Z,77.60
2019-01-26T17:27:48.731Z,78.30
2019-01-26T17:30:18.501Z,78.10
2019-01-26T17:32:45.919Z,77.40
2019-01-26T17:35:13.470Z,77.20
2019-01-26T17:37:40.982Z,77.20
2019-01-26T17:40:12.057Z,76.60
2019-01-26T17:42:39.508Z,75.80
2019-01-26T17:45:07.300Z,75.80
2019-01-26T17:47:34.825Z,75.90
2019-01-26T17:50:03.025Z,76.00
2019-01-26T17:52:30.523Z,76.10
2019-01-26T17:54:58.089Z,76.50
2019-01-26T17:57:25.986Z,76.10
2019-01-26T17:59:53.451Z,76.00
2019-01-26T18:02:21.048Z,75.70
2019-01-26T18:04:48.695Z,76.60
2019-01-26T18:07:16.205Z,76.30
2019-01-26T18:09:43.801Z,77.20
2019-01-26T18:12:11.332Z,76.70
2019-01-26T18:14:38.988Z,76.70
2019-01-26T18:17:06.938Z,76.80
2019-01-26T18:19:34.697Z,76.70
2019-01-26T18:22:02.081Z,76.70
2019-01-26T18:24:29.550Z,77.30
2019-01-26T18:26:56.987Z,76.60
2019-01-26T18:29:24.477Z,76.60
2019-01-26T18:31:51.914Z,77.60
2019-01-26T18:34:19.453Z,77.70
2019-01-26T18:36:46.925Z,77.40
2019-01-26T18:39:14.424Z,77.50
2019-01-26T18:41:41.900Z,77.50
2019-01-26T18:44:09.407Z,77.70
2019-01-26T18:46:36.886Z,77.90
2019-01-26T18:49:04.422Z,78.00
2019-01-26T18:51:31.983Z,78.40
2019-01-26T18:53:59.537Z,77.90
2019-01-26T18:56:27.018Z,78.10
2019-01-26T18:58:54.763Z,78.90
2019-01-26T19:01:22.236Z,78.70
2019-01-26T19:04:06.358Z,78.00
2019-01-26T19:06:33.897Z,77.80
2019-01-26T19:09:01.383Z,79.00
2019-01-26T19:11:28.754Z,79.90
2019-01-26T19:13:56.182Z,79.10
2019-01-26T19:16:23.721Z,78.20
2019-01-26T19:18:51.400Z,79.40
2019-01-26T19:21:18.899Z,78.60
2019-01-26T19:23:46.502Z,78.70
2019-01-26T19:26:13.998Z,78.90
2019-01-26T19:28:41.411Z,79.10
2019-01-26T19:31:08.891Z,79.00
2019-01-26T19:33:36.405Z,79.90
2019-01-26T19:36:04.473Z,80.10
2019-01-26T19:38:32.094Z,79.00
2019-01-26T19:40:59.660Z,78.80
2019-01-26T19:43:27.157Z,78.10
2019-01-26T19:45:54.690Z,78.50
2019-01-26T19:48:22.183Z,77.70
2019-01-26T19:50:49.776Z,77.40
2019-01-26T19:53:17.268Z,77.20
2019-01-26T19:55:44.861Z,77.30
2019-01-26T19:58:13.024Z,77.60
2019-01-26T20:00:40.575Z,77.00
2019-01-26T20:03:09.174Z,77.30
2019-01-26T20:05:36.731Z,77.40
2019-01-26T20:08:04.630Z,76.90
2019-01-26T20:10:32.193Z,76.50
2019-01-26T20:12:59.713Z,76.80
2019-01-26T20:15:27.436Z,76.90
2019-01-26T20:17:54.903Z,77.10
2019-01-26T20:20:25.478Z,76.80
2019-01-26T20:22:52.965Z,76.50
2019-01-26T20:25:20.370Z,76.20
2019-01-26T20:27:47.810Z,76.00
2019-01-26T20:30:21.741Z,76.10
2019-01-26T20:32:49.207Z,76.80
2019-01-26T20:35:16.775Z,77.10
2019-01-26T20:37:44.296Z,76.20
2019-01-26T20:40:13.690Z,75.90
2019-01-26T20:42:41.242Z,76.00
2019-01-26T20:45:11.497Z,75.90
2019-01-26T20:47:39.034Z,76.40
2019-01-26T20:50:07.758Z,76.20
2019-01-26T20:52:35.216Z,76.00
2019-01-26T20:55:02.771Z,76.40
2019-01-26T20:57:30.296Z,75.90
2019-01-26T20:59:57.842Z,75.60
2019-01-26T21:02:25.648Z,76.00
2019-01-26T21:04:53.124Z,76.00
2019-01-26T21:07:20.798Z,76.00
2019-01-26T21:09:48.579Z,76.10
2019-01-26T21:12:16.042Z,75.20
2019-01-26T21:14:43.576Z,76.20
2019-01-26T21:17:11.070Z,76.00
2019-01-26T21:19:38.639Z,75.90
2019-01-26T21:22:06.133Z,75.70
2019-01-26T21:24:33.664Z,76.10
2019-01-26T21:27:01.189Z,75.50
2019-01-26T21:29:28.730Z,75.60
2019-01-26T21:31:56.604Z,75.50
2019-01-26T21:34:24.078Z,75.60
2019-01-26T21:36:51.645Z,75.10
2019-01-26T21:39:19.091Z,75.60
2019-01-26T21:41:46.668Z,75.20
2019-01-26T21:44:14.116Z,75.50
2019-01-26T21:46:41.652Z,75.60
2019-01-26T21:49:09.535Z,75.30
2019-01-26T21:51:39.053Z,75.20
2019-01-26T21:54:06.702Z,75.10
2019-01-26T21:56:34.193Z,75.10
2019-01-26T21:59:01.689Z,76.30
2019-01-26T22:01:29.250Z,75.70
2019-01-26T22:03:56.754Z,76.40
2019-01-26T22:06:24.229Z,75.80
2019-01-26T22:08:51.739Z,75.70
2019-01-26T22:11:19.278Z,75.30
2019-01-26T22:13:46.716Z,75.20
2019-01-26T22:16:14.196Z,75.40
2019-01-26T22:18:42.362Z,74.30
2019-01-26T22:21:09.789Z,75.30
2019-01-26T22:23:37.277Z,75.20
2019-01-26T22:26:04.804Z,75.00
2019-01-26T22:28:32.221Z,75.10
2019-01-26T22:30:59.727Z,75.70
2019-01-26T22:33:27.243Z,75.30
2019-01-26T22:35:54.739Z,75.80
2019-01-26T22:38:22.174Z,75.30
2019-01-26T22:40:49.608Z,74.80
2019-01-26T22:43:17.256Z,74.50
2019-01-26T22:45:44.653Z,74.60
2019-01-26T22:48:12.131Z,74.90
2019-01-26T22:50:39.594Z,74.70
2019-01-26T22:53:07.031Z,74.40
2019-01-26T22:55:34.490Z,75.00
2019-01-26T22:58:03.978Z,74.50
2019-01-26T23:01:19.627Z,75.50
2019-01-26T23:04:24.371Z,76.80
2019-01-26T23:07:33.816Z,77.20
2019-01-26T23:10:35.929Z,76.70
2019-01-26T23:13:45.378Z,75.80
2019-01-26T23:16:53.559Z,75.60
2019-01-26T23:19:44.262Z,74.70
2019-01-26T23:22:56.770Z,75.90
2019-01-26T23:26:05.669Z,76.00
2019-01-26T23:29:03.454Z,75.90
2019-01-26T23:31:30.925Z,75.70
2019-01-26T23:33:58.379Z,75.90
2019-01-26T23:36:25.820Z,76.30
2019-01-26T23:38:54.001Z,75.80
2019-01-26T23:41:21.411Z,75.00
2019-01-26T23:43:48.872Z,75.10
2019-01-26T23:46:16.301Z,74.70
2019-01-26T23:48:43.713Z,75.00
2019-01-26T23:51:11.084Z,75.40
2019-01-26T23:53:38.529Z,74.80
2019-01-26T23:56:05.958Z,74.60
2019-01-26T23:58:33.438Z,75.10
